Yale, Illinois
Current Conditions -  °F | °C
As of 4:55 AM on Monday 20 Oct 2014 (Local Time) from KRSV Reporting Station
Overcast Overcast  
Wind Chill: 51°   Ceiling: 10000
Heat Index: 51°   Visibility: 10mi
Dew Point: 48°   Wind: 6mph
Humidity: 89%   Direction: 190°S
Pressure: 29.99"   Gusts: NA
Location:  39.12°N, 88.02°W
Report Text: KRSV 200955Z AUTO 19005KT 10SM OVC100 11/09 A2999 RMK AO2 T01070090
Loading
Personal Weather Stations






























Interactive Weather Map
Tropical Storm Tracking
New forecast layout! Learn more

10-Day Weather Forecast

Advertisements
Track Severe Weather on mobile